»·PEaware :: AAL191 KJFK-KDEN

AAL191 :: KJFK-KDEN

FLIGHT INFORMATION

Flight Status: Arrived
Operator:
American Airlines
More flights by this operator :: More flights under this callsign
Pilot: Drew L. (13237)
Aircraft: BOEING 757-200
(B752)
More flights by this aircraft type
Origin: KJFK Kennedy Intl
United States
Destination: KDEN Denver Intl
United States
More flights between these airports :: More routes between these airports
Route: COATE Q436 RAAKK Q438 RUBYY PMM J94 DBQ/N0436F320 J94 ONL PORDR AALLE3
File this flight plan on PilotEdge
Remarks: RMK / SIMBRIEF
Altitude:
(Current/Filed)
30,000ft
Speed:
(Current/Filed)
434kts
Departed: 27-Oct-21 09:40 PM
Arrived: 27-Oct-21 11:02 PM
Distance/Time
Traveled:
1408nm/1:22
Distance/Time
To Go:
Arrived

Flight Plot

Page will automatically refresh every two minutes.

Flight plan parsing failed; only flown route is shown


Map Options




Map Legend


Flown Route
Filed Route
Departure Airport
Arrival Airport
Navaid (VOR, NDB)
Fix

Horizontal Profiles

Position Reports

Time Latitude Longitude Heading Altitude Ground
Speed
27-Oct-21 21:39 42.571870 -93.448015 266 29792ft 488kts
27-Oct-21 21:40 42.580907 -93.631519 266 29793ft 489kts
27-Oct-21 21:41 42.589694 -93.816010 265 29792ft 490kts
27-Oct-21 21:42 42.598164 -93.999842 265 29783ft 489kts
27-Oct-21 21:43 42.606742 -94.193089 265 29776ft 492kts
27-Oct-21 21:44 42.611204 -94.379250 259 30552ft 472kts
27-Oct-21 21:45 42.607601 -94.558564 259 32078ft 476kts
27-Oct-21 21:46 42.604666 -94.736282 258 33777ft 467kts
27-Oct-21 21:47 42.601563 -94.911704 258 33779ft 465kts
27-Oct-21 21:48 42.598226 -95.086897 258 33785ft 466kts
27-Oct-21 21:49 42.594625 -95.262770 258 33784ft 467kts
27-Oct-21 21:50 42.590743 -95.438883 258 33784ft 469kts
27-Oct-21 21:51 42.586593 -95.615110 258 33784ft 468kts
27-Oct-21 21:52 42.582160 -95.791876 258 33783ft 468kts
27-Oct-21 21:53 42.577467 -95.968052 258 33783ft 468kts
27-Oct-21 21:54 42.572489 -96.144493 258 33795ft 469kts
27-Oct-21 21:54 42.568141 -96.291578 259 33809ft 468kts
27-Oct-21 21:56 42.561753 -96.496722 259 33809ft 467kts
27-Oct-21 21:57 42.555971 -96.673162 259 33808ft 466kts
27-Oct-21 21:58 42.549948 -96.848361 259 33807ft 465kts
27-Oct-21 21:58 42.544706 -96.994643 260 33809ft 465kts
27-Oct-21 21:59 42.538204 -97.169287 260 33843ft 465kts
27-Oct-21 22:01 42.530297 -97.372668 261 33853ft 464kts
27-Oct-21 22:02 42.523228 -97.547099 262 33854ft 464kts
27-Oct-21 22:02 42.517218 -97.690573 262 33853ft 463kts
27-Oct-21 22:03 42.509623 -97.866061 262 33854ft 463kts
27-Oct-21 22:04 42.501780 -98.040557 263 33870ft 460kts
27-Oct-21 22:06 42.492618 -98.238301 263 33899ft 450kts
27-Oct-21 22:07 42.484492 -98.407277 263 33898ft 449kts
27-Oct-21 22:07 42.477579 -98.547155 263 33898ft 448kts
27-Oct-21 22:08 42.455382 -98.710953 240 33907ft 440kts
27-Oct-21 22:09 42.393543 -98.853198 236 33900ft 439kts
27-Oct-21 22:10 42.329119 -98.993508 236 33919ft 440kts
27-Oct-21 22:11 42.263997 -99.133843 237 33951ft 440kts
27-Oct-21 22:12 42.198935 -99.273283 238 33952ft 441kts
27-Oct-21 22:13 42.133376 -99.413150 238 33953ft 442kts
27-Oct-21 22:14 42.067574 -99.552859 239 33950ft 442kts
27-Oct-21 22:15 42.001613 -99.692301 238 33939ft 443kts
27-Oct-21 22:16 41.935286 -99.831838 239 33924ft 444kts
27-Oct-21 22:17 41.868385 -99.971941 239 33947ft 444kts
27-Oct-21 22:18 41.801566 -100.111192 239 33979ft 444kts
27-Oct-21 22:19 41.734688 -100.249950 239 33979ft 444kts
27-Oct-21 22:20 41.667474 -100.388769 239 33979ft 445kts
27-Oct-21 22:21 41.600055 -100.527374 240 33978ft 446kts
27-Oct-21 22:22 41.532201 -100.666240 240 33981ft 447kts
27-Oct-21 22:23 41.464137 -100.804906 240 33983ft 447kts
27-Oct-21 22:24 41.395906 -100.943282 241 33993ft 448kts
27-Oct-21 22:25 41.339848 -101.088543 252 34016ft 440kts
27-Oct-21 22:26 41.291773 -101.237982 252 34024ft 439kts
27-Oct-21 22:27 41.243615 -101.387026 252 34028ft 439kts
27-Oct-21 22:28 41.195526 -101.536466 253 34036ft 439kts
27-Oct-21 22:29 41.147677 -101.685103 253 34044ft 440kts
27-Oct-21 22:30 41.099480 -101.833989 253 34043ft 439kts
27-Oct-21 22:31 41.051116 -101.982561 253 34042ft 439kts
27-Oct-21 22:32 41.002724 -102.130411 255 34066ft 438kts
27-Oct-21 22:33 40.954105 -102.278261 255 34098ft 438kts
27-Oct-21 22:34 40.905449 -102.425493 255 34097ft 438kts
27-Oct-21 22:35 40.856461 -102.572901 255 34080ft 438kts
27-Oct-21 22:36 40.807303 -102.720041 255 34088ft 439kts
27-Oct-21 22:37 40.758148 -102.866419 255 34085ft 438kts
27-Oct-21 22:38 40.708656 -103.012993 256 34085ft 437kts
27-Oct-21 22:39 40.658977 -103.159375 256 33617ft 442kts
27-Oct-21 22:40 40.608627 -103.306954 258 31918ft 450kts
27-Oct-21 22:41 40.556852 -103.457928 259 30183ft 461kts
27-Oct-21 22:42 40.504607 -103.609030 260 28418ft 439kts
27-Oct-21 22:43 40.454562 -103.752470 256 26712ft 433kts
27-Oct-21 22:44 40.393001 -103.888513 253 25152ft 426kts
27-Oct-21 22:45 40.332646 -104.019631 254 23964ft 411kts
27-Oct-21 22:46 40.245115 -104.133058 231 22218ft 461kts
27-Oct-21 22:47 40.150356 -104.233528 231 20943ft 426kts
27-Oct-21 22:48 40.076145 -104.347145 242 18584ft 411kts
27-Oct-21 22:49 40.004544 -104.455369 231 17755ft 398kts
27-Oct-21 22:50 39.898271 -104.501615 181 15868ft 427kts
27-Oct-21 22:51 39.787451 -104.493783 182 15517ft 368kts
27-Oct-21 22:52 39.687431 -104.486025 182 13809ft 350kts
27-Oct-21 22:53 39.608120 -104.514955 247 12724ft 270kts
27-Oct-21 22:54 39.617039 -104.592116 301 11616ft 203kts
27-Oct-21 22:55 39.641354 -104.659070 299 9514ft 204kts
27-Oct-21 22:56 39.679279 -104.699727 359 8153ft 200kts
27-Oct-21 22:57 39.729304 -104.698072 356 7716ft 173kts
27-Oct-21 22:58 39.771365 -104.697606 358 6884ft 147kts
27-Oct-21 22:59 39.812601 -104.697085 357 6100ft 148kts
27-Oct-21 23:00 39.853470 -104.696524 357 5308ft 147kts
27-Oct-21 23:01 39.871947 -104.696169 13 5296ft 22kts
27-Oct-21 23:02 39.875023 -104.691967 90 5312ft 24kts
27-Oct-21 23:03 39.874815 -104.684053 128 5355ft 12kts
27-Oct-21 23:04 39.869054 -104.683829 181 5352ft 23kts
27-Oct-21 23:05 39.864200 -104.681408 90 5341ft 13kts
27-Oct-21 23:06 39.864194 -104.676215 90 5373ft 24kts

Navigation Log

Ident Type
Flight plan parsing failed, navigation log unavailable